createdAt,value
2018-06-08T00:04:07.145Z,45
2018-06-08T00:09:06.593Z,45
2018-06-08T00:14:07.122Z,45
2018-06-08T00:19:06.876Z,45
2018-06-08T00:24:06.522Z,45
2018-06-08T00:29:07.244Z,45
2018-06-08T00:34:06.931Z,45
2018-06-08T00:39:06.643Z,45
2018-06-08T00:44:06.522Z,45
2018-06-08T00:49:07.339Z,45
2018-06-08T00:54:06.728Z,45
2018-06-08T00:59:07.030Z,45
2018-06-08T01:04:06.717Z,45
2018-06-08T01:09:06.897Z,45
2018-06-08T01:14:06.808Z,45
2018-06-08T01:19:07.041Z,45
2018-06-08T01:24:06.688Z,45
2018-06-08T01:29:06.833Z,45
2018-06-08T01:34:06.835Z,45
2018-06-08T01:39:06.902Z,45
2018-06-08T01:44:06.542Z,45
2018-06-08T01:49:07.170Z,45
2018-06-08T01:54:06.859Z,45
2018-06-08T01:59:06.739Z,45
2018-06-08T02:04:06.604Z,45
2018-06-08T02:09:07.136Z,45
2018-06-08T02:14:06.824Z,45
2018-06-08T02:19:07.645Z,45
2018-06-08T02:24:06.636Z,45
2018-06-08T02:29:07.321Z,45
2018-06-08T02:34:07.254Z,45
2018-06-08T02:39:07.105Z,45
2018-06-08T02:44:07.553Z,45
2018-06-08T02:49:07.073Z,45
2018-06-08T02:54:06.687Z,45
2018-06-08T02:59:07.499Z,45
2018-06-08T03:04:07.328Z,45
2018-06-08T03:09:07.177Z,45
2018-06-08T03:14:06.878Z,45
2018-06-08T03:19:07.495Z,45
2018-06-08T03:24:07.159Z,45
2018-06-08T03:29:06.786Z,45
2018-06-08T03:34:07.665Z,45
2018-06-08T03:39:07.327Z,45
2018-06-08T03:44:07.038Z,45
2018-06-08T03:49:06.842Z,45
2018-06-08T03:54:07.588Z,45
2018-06-08T03:59:07.316Z,45
2018-06-08T04:04:07.122Z,45
2018-06-08T04:09:07.055Z,45
2018-06-08T04:14:06.645Z,45
2018-06-08T04:19:07.412Z,45
2018-06-08T04:24:07.239Z,45
2018-06-08T04:29:07.062Z,45
2018-06-08T04:34:07.327Z,45
2018-06-08T04:39:07.168Z,45
2018-06-08T04:44:06.810Z,45
2018-06-08T04:49:06.845Z,45
2018-06-08T04:54:07.563Z,45
2018-06-08T04:59:07.227Z,45
2018-06-08T05:04:07.247Z,45
2018-06-08T05:09:07.074Z,45
2018-06-08T05:14:07.655Z,45
2018-06-08T05:19:07.412Z,45
2018-06-08T05:24:07.210Z,45
2018-06-08T05:29:07.279Z,45
2018-06-08T05:34:07.126Z,22
2018-06-08T05:39:06.904Z,22
2018-06-08T05:44:06.968Z,22
2018-06-08T05:49:06.796Z,22
2018-06-08T05:54:07.464Z,45
2018-06-08T05:59:07.246Z,45
2018-06-08T06:04:07.844Z,45
2018-06-08T06:09:07.432Z,45
2018-06-08T06:14:07.222Z,90
2018-06-08T06:19:32.861Z,90
2018-06-08T06:25:23.964Z,135
2018-06-08T06:29:36.516Z,135
2018-06-08T06:37:43.947Z,112
2018-06-08T06:39:32.117Z,112
2018-06-08T06:44:07.513Z,135
2018-06-08T06:49:07.338Z,135
2018-06-08T06:54:07.792Z,180
2018-06-08T06:59:07.514Z,180
2018-06-08T07:04:07.585Z,135
2018-06-08T07:09:08.074Z,135
2018-06-08T07:14:07.285Z,90
2018-06-08T07:19:07.086Z,90
2018-06-08T07:24:07.427Z,315
2018-06-08T07:29:07.210Z,315
2018-06-08T07:34:07.694Z,338
2018-06-08T07:39:06.928Z,338
2018-06-08T07:44:07.677Z,68
2018-06-08T07:49:07.725Z,68
2018-06-08T07:54:07.672Z,68
2018-06-08T07:59:07.441Z,68
2018-06-08T08:04:07.078Z,68
2018-06-08T08:09:07.892Z,68
2018-06-08T08:14:07.630Z,315
2018-06-08T08:19:07.381Z,315
2018-06-08T08:24:07.097Z,90
2018-06-08T08:29:07.807Z,90
2018-06-08T08:34:07.703Z,90
2018-06-08T08:39:07.368Z,90
2018-06-08T08:44:07.118Z,68
2018-06-08T08:49:07.806Z,68
2018-06-08T08:54:07.467Z,315
2018-06-08T08:59:07.214Z,315
2018-06-08T09:04:07.957Z,112
2018-06-08T09:09:07.680Z,112
2018-06-08T09:14:07.054Z,68
2018-06-08T09:19:07.783Z,68
2018-06-08T09:24:07.474Z,68
2018-06-08T09:29:07.171Z,68
2018-06-08T09:34:07.983Z,45
2018-06-08T09:39:07.766Z,45
2018-06-08T09:44:07.482Z,315
2018-06-08T09:49:07.576Z,315
2018-06-08T09:54:07.595Z,22
2018-06-08T09:59:07.437Z,22
2018-06-08T10:04:07.562Z,45
2018-06-08T10:09:07.562Z,45
2018-06-08T10:14:07.239Z,180
2018-06-08T10:19:07.096Z,180
2018-06-08T10:24:08.070Z,90
2018-06-08T10:29:07.727Z,90
2018-06-08T10:34:07.385Z,180
2018-06-08T10:39:07.986Z,180
2018-06-08T10:44:07.632Z,90
2018-06-08T10:49:07.567Z,90
2018-06-08T10:54:07.257Z,180
2018-06-08T10:59:07.931Z,180
2018-06-08T11:04:07.762Z,158
2018-06-08T11:09:08.043Z,158
2018-06-08T11:14:07.699Z,225
2018-06-08T11:19:07.839Z,225
2018-06-08T11:24:07.624Z,90
2018-06-08T11:29:07.368Z,90
2018-06-08T11:34:08.133Z,135
2018-06-08T11:39:07.801Z,135
2018-06-08T11:44:07.608Z,112
2018-06-08T11:49:07.213Z,112
2018-06-08T11:54:07.930Z,135
2018-06-08T11:59:08.057Z,135
2018-06-08T12:04:08.223Z,90
2018-06-08T12:09:07.669Z,90
2018-06-08T12:14:08.000Z,112
2018-06-08T12:19:07.642Z,112
2018-06-08T12:24:07.293Z,112
2018-06-08T12:29:07.960Z,112
2018-06-08T12:34:07.699Z,135
2018-06-08T12:39:07.382Z,135
2018-06-08T12:44:08.106Z,225
2018-06-08T12:49:08.012Z,225
2018-06-08T12:54:07.605Z,225
2018-06-08T12:59:07.329Z,225
2018-06-08T13:04:08.103Z,202
2018-06-08T13:09:07.850Z,202
2018-06-08T13:14:07.818Z,180
2018-06-08T13:19:07.652Z,180
2018-06-08T13:24:07.413Z,248
2018-06-08T13:29:08.191Z,248
2018-06-08T13:34:07.873Z,225
2018-06-08T13:39:07.573Z,225
2018-06-08T13:44:08.333Z,248
2018-06-08T13:49:07.954Z,248
2018-06-08T13:54:07.776Z,225
2018-06-08T13:59:07.554Z,225
2018-06-08T14:04:08.154Z,202
2018-06-08T14:09:07.889Z,202
2018-06-08T14:14:08.267Z,180
2018-06-08T14:19:07.952Z,180
2018-06-08T14:24:07.568Z,225
2018-06-08T14:29:07.368Z,225
2018-06-08T14:34:08.297Z,225
2018-06-08T14:39:08.039Z,225
2018-06-08T14:44:07.609Z,135
2018-06-08T14:49:08.431Z,135
2018-06-08T14:54:08.174Z,292
2018-06-08T14:59:07.862Z,292
2018-06-08T15:04:07.616Z,270
2018-06-08T15:09:08.368Z,270
2018-06-08T15:14:07.846Z,315
2018-06-08T15:19:07.599Z,315
2018-06-08T15:24:07.625Z,315
2018-06-08T15:29:08.311Z,315
2018-06-08T15:34:08.162Z,45
2018-06-08T15:39:08.066Z,45
2018-06-08T15:44:07.710Z,315
2018-06-08T15:49:08.628Z,315
2018-06-08T15:54:08.425Z,315
2018-06-08T15:59:08.184Z,315
2018-06-08T16:04:08.034Z,68
2018-06-08T16:09:07.644Z,68
2018-06-08T16:14:08.416Z,68
2018-06-08T16:19:08.185Z,68
2018-06-08T16:24:07.939Z,68
2018-06-08T16:29:07.651Z,68
2018-06-08T16:34:08.007Z,90
2018-06-08T16:39:07.786Z,90
2018-06-08T16:44:08.203Z,90
2018-06-08T16:49:07.893Z,90
2018-06-08T16:54:07.570Z,112
2018-06-08T16:59:08.383Z,112
2018-06-08T17:04:08.308Z,68
2018-06-08T17:09:08.091Z,68
2018-06-08T17:14:07.966Z,68
2018-06-08T17:19:07.695Z,68
2018-06-08T17:24:08.373Z,45
2018-06-08T17:29:08.041Z,45
2018-06-08T17:34:08.045Z,68
2018-06-08T17:39:07.781Z,68
2018-06-08T17:44:08.495Z,68
2018-06-08T17:49:08.266Z,68
2018-06-08T17:54:08.099Z,315
2018-06-08T17:59:07.908Z,315
2018-06-08T18:04:08.165Z,315
2018-06-08T18:09:08.303Z,315
2018-06-08T18:14:08.678Z,0
2018-06-08T18:19:08.542Z,0
2018-06-08T18:24:08.249Z,315
2018-06-08T18:29:07.901Z,315
2018-06-08T18:34:07.811Z,315
2018-06-08T18:39:08.529Z,315
2018-06-08T18:44:08.206Z,315
2018-06-08T18:49:07.998Z,315
2018-06-08T18:54:08.636Z,0
2018-06-08T18:59:08.544Z,0
2018-06-08T19:04:08.423Z,292
2018-06-08T19:09:08.102Z,292
2018-06-08T19:14:08.278Z,315
2018-06-08T19:19:07.963Z,315
2018-06-08T19:24:08.632Z,315
2018-06-08T19:29:08.639Z,315
2018-06-08T19:34:08.291Z,315
2018-06-08T19:39:07.925Z,315
2018-06-08T19:44:08.623Z,338
2018-06-08T19:49:08.333Z,338
2018-06-08T19:54:08.124Z,315
2018-06-08T19:59:07.851Z,315
2018-06-08T20:04:08.720Z,338
2018-06-08T20:09:08.784Z,338
2018-06-08T20:14:08.829Z,315
2018-06-08T20:19:08.747Z,315
2018-06-08T20:24:08.321Z,315
2018-06-08T20:29:08.009Z,315
2018-06-08T20:34:08.851Z,338
2018-06-08T20:39:08.667Z,338
2018-06-08T20:44:08.471Z,338
2018-06-08T20:49:08.289Z,338
2018-06-08T20:54:08.037Z,338
2018-06-08T20:59:08.749Z,338
2018-06-08T21:04:08.525Z,22
2018-06-08T21:09:08.381Z,22
2018-06-08T21:14:08.167Z,68
2018-06-08T21:19:08.937Z,68
2018-06-08T21:24:08.648Z,68
2018-06-08T21:29:08.395Z,68
2018-06-08T21:34:08.180Z,315
2018-06-08T21:39:07.884Z,315
2018-06-08T21:44:08.616Z,315
2018-06-08T21:49:08.473Z,315
2018-06-08T21:54:08.275Z,315
2018-06-08T21:59:08.239Z,315
2018-06-08T22:04:08.790Z,315
2018-06-08T22:09:08.984Z,315
2018-06-08T22:14:08.529Z,315
2018-06-08T22:19:08.289Z,315
2018-06-08T22:24:08.000Z,315
2018-06-08T22:29:08.762Z,315
2018-06-08T22:34:08.549Z,315
2018-06-08T22:39:08.415Z,315
2018-06-08T22:44:08.215Z,315
2018-06-08T22:49:08.977Z,315
2018-06-08T22:54:08.748Z,315
2018-06-08T22:59:08.503Z,315
2018-06-08T23:04:08.390Z,315
2018-06-08T23:09:08.130Z,315
2018-06-08T23:14:08.792Z,315
2018-06-08T23:19:08.510Z,315
2018-06-08T23:24:08.337Z,315
2018-06-08T23:29:08.069Z,315
2018-06-08T23:34:08.888Z,315
2018-06-08T23:39:08.588Z,315
2018-06-08T23:44:08.438Z,315
2018-06-08T23:49:08.295Z,315
2018-06-08T23:54:08.946Z,315
2018-06-08T23:59:08.620Z,315
